createdAt,value
2023-01-12T00:02:25.124Z,34.30
2023-01-12T00:04:52.412Z,28.93
2023-01-12T00:07:20.395Z,29.00
2023-01-12T00:09:47.664Z,34.23
2023-01-12T00:12:14.878Z,34.57
2023-01-12T00:14:41.965Z,27.67
2023-01-12T00:17:11.712Z,25.63
2023-01-12T00:19:40.148Z,28.03
2023-01-12T00:22:13.271Z,28.63
2023-01-12T00:24:41.965Z,33.67
2023-01-12T00:27:16.737Z,36.53
2023-01-12T00:29:44.261Z,26.60
2023-01-12T00:32:15.333Z,36.30
2023-01-12T00:34:42.503Z,31.65
2023-01-12T00:37:10.009Z,36.67
2023-01-12T00:39:40.459Z,37.23
2023-01-12T00:42:26.754Z,30.83
2023-01-12T00:45:12.598Z,30.30
2023-01-12T00:47:39.730Z,32.63
2023-01-12T00:50:06.874Z,31.13
2023-01-12T00:52:33.931Z,32.40
2023-01-12T00:55:01.097Z,31.57
2023-01-12T00:57:28.730Z,31.90
2023-01-12T00:59:58.060Z,27.30
2023-01-12T01:02:25.494Z,30.80
2023-01-12T01:04:52.729Z,31.17
2023-01-12T01:07:21.654Z,28.17
2023-01-12T01:09:49.022Z,31.90
2023-01-12T01:12:16.116Z,28.83
2023-01-12T01:14:43.215Z,29.57
2023-01-12T01:17:10.349Z,32.23
2023-01-12T01:19:37.492Z,30.77
2023-01-12T01:22:04.814Z,26.00
2023-01-12T01:24:31.935Z,28.53
2023-01-12T01:26:59.010Z,36.63
2023-01-12T01:29:26.072Z,22.87
2023-01-12T01:31:55.659Z,24.40
2023-01-12T01:34:23.903Z,25.37
2023-01-12T01:36:51.080Z,24.03
2023-01-12T01:39:18.266Z,27.30
2023-01-12T01:41:45.362Z,21.53
2023-01-12T01:44:30.565Z,24.67
2023-01-12T01:47:02.705Z,22.60
2023-01-12T01:49:29.937Z,27.43
2023-01-12T01:52:04.129Z,17.93
2023-01-12T01:54:34.318Z,27.57
2023-01-12T01:57:01.562Z,17.80
2023-01-12T01:59:31.957Z,27.52
2023-01-12T02:01:59.442Z,20.75
2023-01-12T02:04:26.780Z,20.67
2023-01-12T02:06:55.431Z,28.40
2023-01-12T02:09:24.789Z,22.15
2023-01-12T02:12:11.267Z,23.90
2023-01-12T02:14:57.383Z,17.77
2023-01-12T02:17:36.443Z,25.30
2023-01-12T02:20:12.560Z,21.67
2023-01-12T02:22:49.890Z,21.50
2023-01-12T02:25:35.971Z,21.50
2023-01-12T02:28:05.926Z,18.75
2023-01-12T02:30:41.982Z,18.88
2023-01-12T02:33:47.514Z,27.95
2023-01-12T02:36:14.573Z,21.77
2023-01-12T02:38:48.837Z,23.80
2023-01-12T02:41:45.608Z,22.13
2023-01-12T02:44:33.041Z,26.45
2023-01-12T02:47:01.523Z,17.77
2023-01-12T02:49:31.283Z,19.70
2023-01-12T02:52:00.356Z,22.80
2023-01-12T02:54:28.870Z,26.45
2023-01-12T02:56:57.891Z,20.58
2023-01-12T02:59:27.066Z,20.20
2023-01-12T03:01:56.845Z,23.10
2023-01-12T03:04:24.268Z,20.42
2023-01-12T03:06:57.162Z,25.60
2023-01-12T03:09:42.324Z,25.35
2023-01-12T03:12:12.434Z,17.75
2023-01-12T03:14:41.279Z,20.58
2023-01-12T03:17:10.971Z,20.10
2023-01-12T03:19:40.306Z,20.17
2023-01-12T03:22:10.640Z,21.92
2023-01-12T03:24:50.494Z,20.30
2023-01-12T03:27:19.251Z,18.60
2023-01-12T03:29:52.649Z,21.92
2023-01-12T03:32:21.153Z,20.00
2023-01-12T03:34:48.450Z,21.73
2023-01-12T03:37:15.572Z,22.77
2023-01-12T03:39:58.777Z,23.23
2023-01-12T03:42:32.614Z,18.75
2023-01-12T03:45:12.077Z,20.00
2023-01-12T03:47:41.275Z,21.90
2023-01-12T03:50:11.377Z,15.80
2023-01-12T03:52:39.916Z,19.50
2023-01-12T03:55:09.264Z,21.17
2023-01-12T03:57:37.639Z,21.77
2023-01-12T04:00:07.582Z,21.60
2023-01-12T04:02:34.955Z,22.60
2023-01-12T04:05:02.067Z,24.30
2023-01-12T04:07:30.124Z,23.80
2023-01-12T04:09:57.329Z,23.65
2023-01-12T04:12:24.410Z,24.10
2023-01-12T04:14:51.498Z,23.30
2023-01-12T04:17:19.274Z,24.70
2023-01-12T04:19:46.394Z,23.63
2023-01-12T04:22:34.735Z,23.75
2023-01-12T04:25:01.907Z,25.23
2023-01-12T04:27:28.997Z,22.23
2023-01-12T04:29:56.149Z,27.13
2023-01-12T04:32:23.241Z,31.48
2023-01-12T04:34:50.659Z,33.22
2023-01-12T04:37:18.796Z,33.58
2023-01-12T04:39:45.913Z,29.58
2023-01-12T04:42:31.624Z,26.17
2023-01-12T04:44:58.725Z,27.15
2023-01-12T04:47:25.877Z,25.35
2023-01-12T04:49:53.017Z,27.27
2023-01-12T04:52:20.080Z,21.63
2023-01-12T04:54:47.309Z,34.17
2023-01-12T04:57:14.507Z,32.72
2023-01-12T04:59:41.661Z,28.48
2023-01-12T05:02:08.769Z,35.05
2023-01-12T05:04:36.227Z,35.42
2023-01-12T05:07:03.322Z,33.28
2023-01-12T05:09:49.275Z,29.77
2023-01-12T05:12:16.343Z,41.53
2023-01-12T05:14:43.431Z,37.30
2023-01-12T05:17:10.730Z,42.00
2023-01-12T05:19:37.813Z,35.35
2023-01-12T05:22:04.911Z,39.75
2023-01-12T05:24:32.805Z,24.85
2023-01-12T05:27:00.558Z,31.77
2023-01-12T05:29:28.265Z,33.95
2023-01-12T05:31:55.427Z,40.78
2023-01-12T05:34:22.506Z,39.97
2023-01-12T05:36:49.974Z,38.92
2023-01-12T05:39:17.129Z,31.00
2023-01-12T05:42:02.817Z,29.00
2023-01-12T05:44:29.986Z,40.58
2023-01-12T05:46:57.098Z,47.90
2023-01-12T05:49:24.170Z,35.78
2023-01-12T05:51:51.512Z,37.30
2023-01-12T05:54:18.595Z,42.88
2023-01-12T05:56:45.760Z,37.97
2023-01-12T05:59:12.931Z,33.90
2023-01-12T06:01:41.105Z,23.02
2023-01-12T06:04:08.249Z,47.22
2023-01-12T06:06:35.431Z,36.97
2023-01-12T06:09:03.078Z,27.17
2023-01-12T06:11:49.078Z,37.13
2023-01-12T06:14:16.719Z,36.38
2023-01-12T06:16:44.555Z,39.97
2023-01-12T06:19:13.126Z,26.30
2023-01-12T06:21:40.610Z,36.65
2023-01-12T06:24:08.120Z,32.90
2023-01-12T06:26:35.263Z,37.38
2023-01-12T06:29:05.278Z,39.63
2023-01-12T06:31:32.488Z,39.78
2023-01-12T06:33:59.661Z,44.28
2023-01-12T06:36:26.746Z,32.40
2023-01-12T06:38:53.840Z,44.15
2023-01-12T06:41:39.533Z,40.22
2023-01-12T06:44:06.607Z,40.25
2023-01-12T06:46:33.819Z,41.67
2023-01-12T06:49:01.013Z,42.10
2023-01-12T06:51:28.519Z,41.08
2023-01-12T06:53:55.703Z,43.30
2023-01-12T06:56:22.889Z,41.28
2023-01-12T06:58:50.143Z,40.53
2023-01-12T07:01:17.425Z,39.50
2023-01-12T07:03:44.760Z,29.20
2023-01-12T07:06:11.990Z,39.70
2023-01-12T07:08:39.080Z,42.00
2023-01-12T07:11:12.787Z,51.25
2023-01-12T07:13:39.895Z,50.90
2023-01-12T07:16:07.246Z,38.22
2023-01-12T07:18:34.575Z,47.00
2023-01-12T07:21:06.194Z,43.83
2023-01-12T07:23:33.400Z,52.00
2023-01-12T07:26:00.528Z,37.50
2023-01-12T07:28:27.748Z,63.00
2023-01-12T07:30:59.490Z,59.15
2023-01-12T07:33:26.642Z,55.72
2023-01-12T07:35:54.392Z,65.03
2023-01-12T07:38:21.484Z,66.85
2023-01-12T07:40:48.619Z,60.40
2023-01-12T07:43:17.241Z,59.83
2023-01-12T07:45:44.313Z,57.20
2023-01-12T07:48:11.734Z,57.42
2023-01-12T13:14:35.965Z,80.40
2023-01-12T13:17:03.027Z,74.45
2023-01-12T13:19:40.723Z,71.10
2023-01-12T13:22:29.654Z,65.28
2023-01-12T13:24:57.337Z,78.95
2023-01-12T13:27:43.009Z,77.78
2023-01-12T13:30:19.721Z,72.05
2023-01-12T13:32:55.985Z,73.05
2023-01-12T13:35:24.132Z,64.38
2023-01-12T13:37:55.543Z,70.68
2023-01-12T13:40:26.986Z,72.65
2023-01-12T13:43:14.834Z,72.38
2023-01-12T13:45:50.660Z,88.10
2023-01-12T13:48:19.053Z,81.22
2023-01-12T13:50:51.252Z,81.20
2023-01-12T13:53:31.312Z,81.05
2023-01-12T13:56:01.559Z,75.90
2023-01-12T13:58:29.663Z,79.47
2023-01-12T14:00:58.452Z,75.40
2023-01-12T14:03:31.810Z,70.93
2023-01-12T14:06:05.959Z,76.38
2023-01-12T14:08:52.113Z,79.25
2023-01-12T14:11:28.916Z,74.32
2023-01-12T14:13:59.137Z,71.55
2023-01-12T14:17:05.242Z,81.85
2023-01-12T14:19:32.211Z,87.57
2023-01-12T14:22:04.843Z,75.20
2023-01-12T14:24:32.097Z,82.93
2023-01-12T14:26:59.226Z,71.47
2023-01-12T14:29:26.490Z,76.38
2023-01-12T14:31:54.480Z,77.18
2023-01-12T14:34:29.724Z,71.85
2023-01-12T14:36:57.043Z,75.88
2023-01-12T14:39:25.608Z,75.68
2023-01-12T14:42:13.071Z,72.57
2023-01-12T14:45:07.664Z,73.60
2023-01-12T14:47:35.195Z,74.38
2023-01-12T14:50:16.079Z,74.00
2023-01-12T14:52:44.406Z,88.35
2023-01-12T14:55:18.546Z,74.10
2023-01-12T14:57:51.308Z,82.60
2023-01-12T15:00:22.203Z,85.47
2023-01-12T15:02:50.286Z,95.93
2023-01-12T15:05:19.737Z,81.53
2023-01-12T15:08:20.270Z,76.18
2023-01-12T15:10:56.156Z,82.88
2023-01-12T15:13:31.955Z,83.72
2023-01-12T15:16:18.310Z,89.03
2023-01-12T15:19:04.083Z,78.22
2023-01-12T15:21:51.190Z,83.00
2023-01-12T15:24:40.331Z,76.35
2023-01-12T15:27:08.289Z,74.05
2023-01-12T15:29:35.442Z,82.72
2023-01-12T15:32:03.330Z,82.35
2023-01-12T15:37:16.230Z,71.95
2023-01-12T15:39:43.380Z,78.00
2023-01-12T15:42:17.253Z,65.15
2023-01-12T15:44:48.494Z,65.13
2023-01-12T15:47:16.480Z,59.20
2023-01-12T15:49:47.646Z,57.45
2023-01-12T15:52:16.846Z,54.25
2023-01-12T15:54:44.070Z,54.80
2023-01-12T15:57:14.931Z,55.45
2023-01-12T15:59:42.023Z,53.20
2023-01-12T16:02:32.619Z,59.63
2023-01-12T16:04:59.834Z,57.88
2023-01-12T16:07:27.005Z,52.47
2023-01-12T16:09:55.698Z,60.08
2023-01-12T16:12:23.577Z,48.10
2023-01-12T16:14:50.992Z,52.60
2023-01-12T16:17:18.591Z,53.47
2023-01-12T16:19:45.725Z,48.38
2023-01-12T16:22:17.907Z,56.28
2023-01-12T16:24:45.152Z,60.65
2023-01-12T16:27:12.477Z,61.85
2023-01-12T16:29:39.687Z,55.47
2023-01-12T16:32:07.348Z,61.13
2023-01-12T16:34:34.884Z,56.28
2023-01-12T16:37:02.508Z,56.85
2023-01-12T16:39:30.203Z,51.28
2023-01-12T16:42:03.608Z,61.67
2023-01-12T16:44:32.121Z,47.30
2023-01-12T16:46:59.352Z,41.10
2023-01-12T16:49:26.619Z,44.80
2023-01-12T16:51:53.910Z,49.17
2023-01-12T21:11:53.547Z,35.35
2023-01-12T21:14:22.992Z,33.78
2023-01-12T21:16:50.187Z,33.78
2023-01-12T21:19:18.226Z,28.92
2023-01-12T21:21:45.577Z,36.03
2023-01-12T21:24:12.729Z,37.08
2023-01-12T21:26:39.933Z,35.72
2023-01-12T21:29:07.048Z,32.22
2023-01-12T21:31:34.254Z,30.88
2023-01-12T21:34:04.423Z,39.85
2023-01-12T21:36:31.645Z,41.75
2023-01-12T21:38:59.256Z,43.30
2023-01-12T21:41:26.611Z,34.03
2023-01-12T21:43:54.312Z,38.60
2023-01-12T21:46:22.326Z,32.65
2023-01-12T21:48:49.485Z,35.75
2023-01-12T21:51:17.556Z,32.60
2023-01-12T21:53:44.673Z,32.88
2023-01-12T21:56:12.455Z,38.67
2023-01-12T21:58:39.629Z,33.55
2023-01-12T22:01:11.305Z,32.28
2023-01-12T22:03:39.168Z,33.63
2023-01-12T22:06:07.495Z,31.27
2023-01-12T22:08:38.537Z,35.38
2023-01-12T22:11:13.385Z,34.97
2023-01-12T22:13:40.802Z,32.90
2023-01-12T22:16:09.342Z,34.25
2023-01-12T22:18:37.175Z,29.40
2023-01-12T22:21:05.557Z,40.03
2023-01-12T22:23:33.507Z,34.72
2023-01-12T22:26:04.731Z,43.97
2023-01-12T22:28:36.079Z,36.90
2023-01-12T22:33:30.209Z,42.33
2023-01-12T22:35:57.373Z,34.67
2023-01-12T22:38:24.505Z,37.40
2023-01-12T22:40:51.604Z,35.00
2023-01-12T22:43:28.026Z,35.55
2023-01-12T22:45:57.848Z,37.80
2023-01-12T22:48:25.784Z,40.80
2023-01-12T22:50:56.309Z,30.48
2023-01-12T22:53:24.139Z,36.90
2023-01-12T22:55:51.984Z,36.22
2023-01-12T22:58:19.169Z,34.08
2023-01-12T23:00:46.288Z,34.58
2023-01-12T23:03:14.290Z,34.47
2023-01-12T23:05:46.407Z,34.47
2023-01-12T23:08:13.834Z,40.20
2023-01-12T23:10:41.482Z,35.38
2023-01-12T23:13:11.708Z,35.65
2023-01-12T23:15:39.627Z,32.65
2023-01-12T23:18:07.465Z,35.78
2023-01-12T23:20:36.190Z,35.05
2023-01-12T23:23:03.680Z,40.40
2023-01-12T23:25:32.716Z,33.45
2023-01-12T23:28:00.434Z,43.00
2023-01-12T23:30:31.031Z,43.33
2023-01-12T23:33:03.962Z,36.58
2023-01-12T23:35:31.977Z,40.42
2023-01-12T23:37:59.096Z,43.50
2023-01-12T23:40:26.282Z,37.45
2023-01-12T23:42:53.440Z,44.20
2023-01-12T23:45:20.564Z,36.97
2023-01-12T23:47:47.782Z,40.40
2023-01-12T23:50:14.976Z,40.50
2023-01-12T23:52:42.127Z,34.90
2023-01-12T23:55:09.740Z,44.75
2023-01-12T23:57:36.941Z,40.58
